Airport View

Enter AWOS ICAO identifier for current METAR.

ex. KFNL

KDNA 251105Z AUTO 22004KT 10SM CLR 16/01 A2996 RMK AO2

25 Oct 2020 11:08

Frequency: 124.175

Phone: 575-589-2643

Other Area AWOS: K5T6 - KBIF - KELP - MMCS

TAF KBIF 250605Z 2506/2612 VRB06KT 9999 SKC 510013 QNH2993INS BECMG 2518/2519 24015G20KT 9999 SCT170 510053 QNH2978INS BECMG 2600/2601 24009KT 9999 FEW160 510053 QNH2979INS TX31/2521Z TN12/2513Z